Tiempo atmosférico en la estación meteorológica de Fisterra, A Coruña (230 m.)



Fecha
DESCASC
Temp. máxima en grados centígrados (hora)
DESCASC
Temp. mínima en grados centígrados (hora)
DESCASC
Temp. media en grados centígrados
DESCASC
Racha de viento máxima en m/sg (hora)
DESCASC
Velocidad máxima media en intervalos de 10 minutos(hora)
DESCASC
Precipitaciones diarias en mm
DESCASC
Precipitaciones de 00:00 a 06:00 en mm
DESCASC
Precipitaciones de 06:00 a 12:00 en mm
DESCASC
Precipitaciones de 12:00 a 18:00 en mm
DESCASC
Precipitaciones de 18:00 a 24:00 en mm
DESCASC
02-08-2020 17.7 (16:40) 14.9 (05:20) 16.3 15.83 (18:30) 10.83 (18:20) 0 0 0 0 0
01-08-2020 18.7 (20:10) 15.2 (07:20) 17 16.67 (18:40) 11.11 (16:10) 0 0 0 0 0
31-07-2020 19 (12:00) 15.4 (08:40) 17.2 9.17 (10:40) 7.22 (10:40) 0.2 0.2 0 0 0
30-07-2020 25.3 (03:10) 15.9 (00:00) 20.6 12.5 (12:30) 9.72 (12:10) 0 0 0 0 0
29-07-2020 26.1 (19:40) 15.3 (00:00) 20.7 17.78 (09:50) 11.11 (09:50) 0 0 0 0 0
28-07-2020 19.9 (16:40) 15.7 (00:00) 17.8 20.83 (19:20) 13.89 (19:20) 0 0 0 0 0
27-07-2020 21.5 (17:10) 16.4 (00:00) 18.9 10.56 (00:20) 8.89 (00:10) 0 0 0 0 0
26-07-2020 19.3 (15:20) 15.9 (00:00) 17.6 13.61 (20:30) 10 (23:20) 0.2 0 0 0.2 0
25-07-2020 21.7 (16:20) 15.1 (00:00) 18.4 12.22 (05:00) 8.89 (01:10) 0 0 0 0 0
24-07-2020 17.8 (12:40) 14.5 (00:00) 16.1 18.06 (16:10) 11.39 (18:30) 0 0 0 0 0
23-07-2020 23.5 (12:50) 15 (00:00) 19.3 18.61 (16:00) 13.33 (16:10) 0 0 0 0 0
22-07-2020 28.7 (15:50) 16.1 (00:00) 22.4 18.89 (02:50) 11.94 (02:50) 0 0 0 0 0
21-07-2020 24.2 (15:10) 15.8 (00:00) 20 18.06 (20:20) 12.22 (20:40) 0 0 0 0 0
20-07-2020 21.8 (14:00) 15.8 (00:00) 18.8 22.78 (21:00) 15.56 (20:40) 0 0 0 0 0
19-07-2020 25.8 (00:20) 15.8 (00:00) 20.8 19.44 (23:30) 12.22 (22:20) 0 0 0 0 0
18-07-2020 30.5 (15:30) 24.1 (00:00) 27.3 11.39 (00:10) 8.61 (00:10) 0 0 0 0 0
17-07-2020 31.6 (14:30) 14.7 (00:00) 23.2 19.17 (06:40) 13.06 (06:40) 0 0 0 0 0
16-07-2020 25.2 (15:40) 13.7 (00:00) 19.5 23.61 (01:10) 15 (01:20) 0 0 0 0 0
15-07-2020 20.5 (14:50) 14.5 (00:00) 17.5 22.22 (23:10) 15.28 (23:30) 0 0 0 0 0
14-07-2020 18.3 (12:40) 14.4 (00:00) 16.3 20.56 (20:40) 13.33 (01:10) 0 0 0 0 0
13-07-2020 21.7 (15:50) 15.2 (00:00) 18.5 19.72 (13:20) 13.06 (23:30) 0 0 0 0 0
12-07-2020 27.9 (13:00) 17.3 (04:40) 22.6 20.28 (00:10) 14.72 (00:20) 0 0 0 0 0
11-07-2020 23.8 (14:30) 14.7 (04:10) 19.2 21.11 (08:20) 13.61 (23:59) 0 0 0 0 0
10-07-2020 20 (15:20) 14 (00:00) 17 18.06 (19:50) 11.11 (22:50) 0 0 0 0 0
09-07-2020 18.3 (17:20) 14.8 (23:59) 16.5 21.11 (03:20) 15.83 (03:30) 0 0 0 0 0
08-07-2020 22.3 (00:20) 15.4 (07:00) 18.8 20 (23:10) 14.17 (23:10) 0 0 0 0 0
07-07-2020 28 (14:50) 14.6 (02:10) 21.3 20.56 (04:00) 13.89 (04:00) 0 0 0 0 0

Gráficas

Temp. máximas Temp. mínimas Temp. medias Precipitaciones Rachas de viento máximas Velocidades máximas media en intervalos de 10 minutos

Datos horarios

Fecha y hora oficial Temperatura (ºC) Velocidad del viento (km/h) Dirección del viento Racha (km/h) Dirección de racha Precipitación (mm) Presión (hPa) Tendencia (hPa) Humedad (%)
2020-08-05 23:00:00 17.4 36 Nordeste 49 Nordeste 0 986.8 1 88
2020-08-05 22:00:00 17.6 38 Nordeste 49 Nordeste 0 986.4 0.3 84
2020-08-05 21:00:00 18 38 Norte 54 Norte 0 985.9 -0.3 84
2020-08-05 20:00:00 18.2 39 Norte 57 Norte 0 985.8 -0.8 84
2020-08-05 19:00:00 18.3 39 Norte 57 Norte 0 986.1 -- 83
2020-08-05 18:00:00 18.3 41 Norte 54 Norte 0 986.2 -- 83
2020-08-05 17:00:00 18.8 40 Norte 53 Norte 0 986.6 -- 83
2020-08-05 16:00:00 18.8 36 Norte 50 Norte 0 987.1 -- 82
2020-08-05 15:00:00 18.5 36 Norte 50 Norte 0 987.1 -- 83
2020-08-05 14:00:00 18.5 36 Norte 51 Norte 0 987.3 -- 85
2020-08-05 13:00:00 18.8 28 Nordeste 46 Nordeste 0 987.4 -- 85
2020-08-05 12:00:00 18.2 30 Norte 41 Nordeste 0 987.5 -- 87
2020-08-05 11:00:00 17.8 26 Norte 38 Norte 0 987.6 -- 91
2020-08-05 10:00:00 16.8 25 Norte 36 Nordeste 0 987.3 -- 97
2020-08-05 09:00:00 16.4 28 Nordeste 36 Nordeste 0 987.1 -- 97
2020-08-05 08:00:00 16.1 30 Nordeste 49 Nordeste 0 987 -- 97
2020-08-05 07:00:00 16 37 Norte 56 Norte 0 986.6 -- 97
2020-08-05 06:00:00 16.2 31 Norte 41 Norte 0 986.9 -- 97
2020-08-05 05:00:00 16.4 32 Norte 43 Norte 0 986.9 -- 97
2020-08-05 04:00:00 16.5 27 Nordeste 41 Nordeste 0 987.1 -- 96
2020-08-05 03:00:00 16.5 34 Nordeste 49 Nordeste 0 987.2 -- 95
2020-08-05 02:00:00 16.9 38 Nordeste 53 Nordeste 0 987.3 -- 94
2020-08-05 01:00:00 16.9 35 Nordeste 49 Nordeste 0 987.7 -- 95
2020-08-05 00:00:00 16.8 32 Nordeste 50 Nordeste 0 988.1 -- 94
2020-08-04 23:00:00 17.1 39 Nordeste 50 Nordeste 0 988.1 -- 93
2020-08-04 22:00:00 17.5 38 Nordeste 50 Nordeste 0 987.8 -- 92
2020-08-04 21:00:00 18.1 39 Nordeste 50 Nordeste 0 988 -- 89
2020-08-04 20:00:00 17.9 35 Nordeste 52 Nordeste 0 988 -- 89
2020-08-04 19:00:00 17.7 37 Norte 56 Norte 0 988.3 -- 90
2020-08-04 18:00:00 17.6 36 Norte 54 Norte 0 988.8 -- 90
2020-08-04 17:00:00 18 38 Norte 64 Nordeste 0 989.4 -- 89
2020-08-04 16:00:00 17.1 40 Norte 59 Norte 0 989.8 -- 91
2020-08-04 15:00:00 17.6 40 Norte 55 Norte 0 990.3 -- 90
2020-08-04 14:00:00 17.7 37 Norte 54 Nordeste 0 990.4 -- 90
2020-08-04 13:00:00 17.4 34 Norte 48 Norte 0 990.9 -- 90
2020-08-04 12:00:00 17.5 25 Norte 34 Norte 0 991.3 -- 88
2020-08-04 11:00:00 17.4 17 Nordeste 25 Nordeste 0 991.5 -- 91
2020-08-04 10:00:00 16.9 10 Nordeste 25 Nordeste 0 992 -- 97
2020-08-04 09:00:00 15.9 15 Nordeste 30 Nordeste 0 991.9 -- 97
2020-08-04 08:00:00 15.8 23 Nordeste 34 Nordeste 0 991.8 -- 97
2020-08-04 07:00:00 15.6 26 Nordeste 37 Nordeste 0 991.7 -- 97
2020-08-04 06:00:00 15.7 26 Nordeste 36 Nordeste 0 991.7 -- 97
2020-08-04 05:00:00 15.8 24 Nordeste 38 Nordeste 0 991.7 -- 97
2020-08-04 04:00:00 16 29 Nordeste 42 Nordeste 0 991.9 -- 97
2020-08-04 03:00:00 16.1 28 Nordeste 39 Nordeste 0 992.4 -- 97
2020-08-04 02:00:00 15.7 27 Nordeste 44 Norte 0 992.8 -- 97
2020-08-04 01:00:00 16.4 28 Nordeste 41 Nordeste 0 992.7 -- 97
2020-08-04 00:00:00 16.4 29 Norte 44 Nordeste 0 993 -- 96
2020-08-03 23:00:00 16.7 23 Norte 34 Norte 0 992.9 -- 96
2020-08-03 22:00:00 17 24 Nordeste 36 Nordeste 0 992.3 -- 94
2020-08-03 21:00:00 17 27 Nordeste 42 Nordeste 0 991.9 -- 94
2020-08-03 20:00:00 17.1 28 Norte 37 Norte 0 992 -- 96
2020-08-03 19:00:00 17 25 Norte 36 Norte 0 992.4 -- 95
2020-08-03 18:00:00 17.2 23 Norte 30 Norte 0 992.5 -- 94
2020-08-03 17:00:00 18.9 15 Norte 27 Norte 0 992.6 -- 88
2020-08-03 16:00:00 18.8 18 Norte 24 Norte 0 992.8 -- 86
2020-08-03 15:00:00 19.1 12 Norte 19 Norte 0 993.2 -- 86
2020-08-03 14:00:00 18.1 4 Oeste 9 Oeste 0 993.5 -- 90
2020-08-03 13:00:00 17.1 5 Sur 17 Sudeste 0 993.5 -- 89
2020-08-03 12:00:00 16 12 Sudeste 19 Sudeste 0 993.5 -- 92
2020-08-03 11:00:00 15.3 11 Sudeste 16 Sur 0 993.3 -- 91
2020-08-03 10:00:00 15.4 11 Sur 22 Sur 0 993.4 -- 90
2020-08-03 09:00:00 15.2 17 Sur 22 Sur 0 992.8 -- 89
2020-08-03 08:00:00 15.3 14 Sur 17 Sudeste 0 992.6 -- 87
2020-08-03 07:00:00 16.1 5 Sudoeste 8 Sudoeste 0 992.7 -- 80
2020-08-03 06:00:00 16 4 Nordeste 9 Este 0 992.6 -- 79
2020-08-03 05:00:00 15.7 9 Este 15 Nordeste 0 992.9 -- 80
2020-08-03 04:00:00 15.3 13 Nordeste 17 Norte 0 993.3 -- 86
2020-08-03 03:00:00 15.4 14 Norte 23 Norte 0 994 -- 84
2020-08-03 02:00:00 15.4 18 Norte 24 Norte 0 994.2 -- 84
2020-08-03 01:00:00 15.4 19 Norte 29 Nordeste 0 994.3 -- 84
2020-08-03 00:00:00 15.4 17 Nordeste 37 Nordeste 0 994.1 -- 84
2020-08-02 23:00:00 15.3 27 Norte 40 Norte 0 994.6 -- 85
2020-08-02 22:00:00 15.6 26 Nordeste 41 Norte 0 994 -- 84
2020-08-02 21:00:00 15.9 28 Norte 50 Norte 0 994 -- 83
2020-08-02 20:00:00 16.1 30 Norte 50 Norte 0 993.9 -- 80
2020-08-02 19:00:00 16.7 33 Norte 57 Norte 0 994.1 -- 78
2020-08-02 18:00:00 16.6 33 Norte 55 Norte 0 994.3 -- 83
2020-08-02 17:00:00 17.2 34 Norte 51 Norte 0 994.2 -- 78
2020-08-02 16:00:00 17.5 33 Norte 53 Norte 0 994.5 -- 78
2020-08-02 15:00:00 17.1 30 Norte 51 Norte 0 994.8 -- 79
2020-08-02 14:00:00 16.7 33 Norte 50 Norte 0 995.2 -- 83
2020-08-02 13:00:00 16.8 32 Norte 47 Nordeste 0 995.5 -- 82
2020-08-02 12:00:00 16.4 29 Nordeste 40 Norte 0 995.5 -- 83
2020-08-02 11:00:00 16.8 23 Nordeste 36 Nordeste 0 995.8 -- 81
2020-08-02 10:00:00 16.7 19 Nordeste 36 Nordeste 0 995.3 -- 84
2020-08-02 09:00:00 15.8 23 Nordeste 31 Nordeste 0 995.6 -- 87
2020-08-02 08:00:00 15 24 Nordeste 32 Nordeste 0 995.3 -- 90
2020-08-02 07:00:00 15.1 24 Nordeste 34 Nordeste 0 995.3 -- 90
2020-08-02 06:00:00 15.1 23 Nordeste 37 Nordeste 0 995 -- 89
2020-08-02 05:00:00 15 28 Nordeste 39 Nordeste 0 995.1 -- 92
2020-08-02 04:00:00 15.1 25 Nordeste 39 Nordeste 0 994.7 -- 91
2020-08-02 03:00:00 15.4 31 Nordeste 45 Nordeste 0 994.9 -- 91
2020-08-02 02:00:00 15.6 33 Nordeste 46 Nordeste 0 995.1 -- 90
2020-08-02 01:00:00 15.6 29 Nordeste 46 Nordeste 0 995.5 -- 90
2020-08-02 00:00:00 15.7 30 Nordeste 48 Nordeste 0 995.6 -- 89
2020-08-01 23:00:00 15.9 31 Nordeste 48 Nordeste 0 995.3 -- 89
2020-08-01 22:00:00 16.7 31 Nordeste 51 Nordeste 0 994.9 -- 85
2020-08-01 21:00:00 18.1 31 Nordeste 53 Nordeste 0 994.8 -- 73
2020-08-01 20:00:00 18.6 26 Nordeste 54 Norte 0 995 -- 78
2020-08-01 19:00:00 17.9 37 Norte 60 Norte 0 994.9 -- 86
2020-08-01 18:00:00 18.1 33 Norte 52 Norte 0 995.1 -- 85
2020-08-01 17:00:00 18.2 35 Norte 55 Norte 0 995.1 -- 86
2020-08-01 16:00:00 17.8 36 Norte 56 Norte 0 995.4 -- 88
2020-08-01 15:00:00 17.4 35 Norte 51 Norte 0 995.4 -- 89
2020-08-01 14:00:00 17.3 33 Norte 47 Norte 0 995.5 -- 91
2020-08-01 13:00:00 17.1 33 Norte 47 Nordeste 0 995.4 -- 92
2020-08-01 12:00:00 16.6 29 Norte 41 Norte 0 995.4 -- 94
2020-08-01 11:00:00 17 20 Nordeste 26 Nordeste 0 995.1 -- 93
2020-08-01 10:00:00 16.7 18 Nordeste 27 Nordeste 0 994.8 -- 95
2020-08-01 09:00:00 15.8 18 Nordeste 25 Nordeste 0 994.4 -- 97
2020-08-01 08:00:00 15.4 19 Nordeste 28 Nordeste 0 994 -- 97
2020-08-01 07:00:00 15.5 23 Nordeste 30 Nordeste 0 993.6 -- 97
2020-08-01 06:00:00 15.5 21 Nordeste 30 Nordeste 0 993.5 -- 96
2020-08-01 05:00:00 15.6 26 Nordeste 32 Nordeste 0 993.4 -- 96
2020-08-01 04:00:00 15.6 24 Nordeste 28 Nordeste 0 993.5 -- 96
2020-08-01 03:00:00 16.1 21 Nordeste 32 Nordeste 0 993.5 -- 96
2020-08-01 02:00:00 16.4 20 Nordeste 27 Nordeste 0 993.4 -- 96
2020-08-01 01:00:00 16.4 20 Nordeste 25 Nordeste 0 993.4 -- 95
2020-08-01 00:00:00 16.6 20 Nordeste 24 Nordeste 0 993.3 -- 96
2020-07-31 23:00:00 16.8 15 Nordeste 20 Nordeste 0 993 -- 96
2020-07-31 22:00:00 17.2 17 Nordeste 24 Norte 0 992.2 -- 96
2020-07-31 21:00:00 17 8 Norte 12 Norte 0 992 -- 94
2020-07-31 20:00:00 17.2 9 Oeste 17 Oeste 0 991.8 -- 93
2020-07-31 19:00:00 18 11 Oeste 16 Oeste 0 991.7 -- 90
2020-07-31 18:00:00 18 7 Sudoeste 19 Sur 0 991.7 -- 86
2020-07-31 17:00:00 17.7 14 Sudeste 21 Sur 0 991.5 -- 83
2020-07-31 16:00:00 17.8 11 Sur 22 Sudoeste 0 991.2 -- 81
2020-07-31 15:00:00 17.5 15 Sudeste 29 Sur 0 991 -- 85
2020-07-31 14:00:00 17 18 Sur 27 Sur 0 990.7 -- 84
2020-07-31 13:00:00 17.2 19 Sur 30 Sudoeste 0 990.3 -- 83
2020-07-31 12:00:00 19 19 Sur 30 Sur 0 990.1 -- 82
2020-07-31 11:00:00 18.2 20 Sur 33 Sur 0 990.1 -- 86
2020-07-31 10:00:00 16.4 20 Sur 26 Sur 0 989.3 -- 93
2020-07-31 09:00:00 15.6 17 Sur 24 Sudoeste 0 988.9 -- 94
2020-07-31 08:00:00 15.6 19 Sudoeste 27 Sudoeste 0 988.8 -- 94
2020-07-31 07:00:00 15.6 18 Sur 27 Sur 0 988.1 -- 94
2020-07-31 06:00:00 15.7 16 Sudoeste 20 Sudoeste 0 987.8 -- 94
2020-07-31 05:00:00 15.8 13 Sur 21 Sudoeste 0 987.5 -- 94
2020-07-31 04:00:00 15.9 11 Sur 17 Sur 0 987.4 -- 94
2020-07-31 03:00:00 16.1 12 Sudoeste 17 Sudoeste 0.2 987.9 -- 95
2020-07-31 02:00:00 15.9 10 Sur 16 Sur 0 988 -- 95
2020-07-31 01:00:00 16 10 Sur 14 Sudeste 0 988.5 -- 94
2020-07-31 00:00:00 15.9 9 Sudeste 14 Sudeste 0 988.4 -- 93
2020-07-30 23:00:00 16.4 2 Sur 9 Sudeste 0 988.2 -- 91
2020-07-30 22:00:00 17 6 Este 10 Norte 0 987.5 -- 90
2020-07-30 21:00:00 17.3 4 Oeste 13 Noroeste 0 986.8 -- 91
2020-07-30 20:00:00 17.1 5 Este 12 Este 0 986.6 -- 93
2020-07-30 19:00:00 17 4 Sudeste 26 Sur 0 986 -- 92
2020-07-30 18:00:00 17.2 17 Sur 32 Sur 0 985.7 -- 91
2020-07-30 17:00:00 17.4 24 Sur 40 Sur 0 985.8 -- 91
2020-07-30 16:00:00 17.4 30 Sur 41 Sur 0 985.8 -- 91
2020-07-30 15:00:00 17.5 30 Sur 43 Sur 0 985.6 -- 89
2020-07-30 14:00:00 17.6 30 Sur 44 Sur 0 985.6 -- 88
2020-07-30 13:00:00 17 27 Sur 45 Sur 0 985.6 -- 85
2020-07-30 12:00:00 22.5 33 Sur 43 Sur 0 984.8 -- 64
2020-07-30 11:00:00 22.5 29 Sudeste 44 Sur 0 984.3 -- 65
2020-07-30 10:00:00 21.1 29 Sudeste 42 Sudeste 0 983.9 -- 72
2020-07-30 09:00:00 19.6 30 Sudeste 39 Sudeste 0 983.8 -- 79
2020-07-30 08:00:00 19.6 27 Sudeste 34 Sudeste 0 983.9 -- 78
2020-07-30 07:00:00 19.1 17 Sur 23 Sudeste 0 983.8 -- 80
2020-07-30 06:00:00 20 17 Sudeste 23 Sudeste 0 983.4 -- 77
2020-07-30 05:00:00 21.7 8 Sudoeste 17 Sur 0 983.6 -- 71
2020-07-30 04:00:00 24 7 Sur 13 Sudeste 0 983.6 -- 61
2020-07-30 03:00:00 25.1 6 Sur 8 Sur 0 984 -- 60
2020-07-30 02:00:00 24.9 2 Noroeste 12 Sudeste 0 984.6 -- 59
2020-07-30 01:00:00 25.1 5 Sudeste 23 Este 0 984.8 -- 58
2020-07-30 00:00:00 23.4 19 Este 24 Este 0 985.1 -- 64
2020-07-29 23:00:00 24.8 18 Este 24 Este 0 985.1 -- 59
2020-07-29 22:00:00 24 21 Este 26 Nordeste 0 984.8 -- 63
2020-07-29 21:00:00 24.1 21 Nordeste 26 Este 0 984.8 -- 63
2020-07-29 20:00:00 25.5 18 Nordeste 27 Nordeste 0 984.7 -- 60
2020-07-29 19:00:00 25.7 19 Nordeste 33 Nordeste 0 985 -- 59
2020-07-29 18:00:00 25.1 22 Nordeste 37 Nordeste 0 985.6 -- 59
2020-07-29 17:00:00 22.7 31 Nordeste 45 Nordeste 0 985.9 -- 65
2020-07-29 16:00:00 21.4 31 Nordeste 45 Norte 0 986.5 -- 69
2020-07-29 15:00:00 21.2 24 Nordeste 42 Nordeste 0 987.1 -- 69
2020-07-29 14:00:00 21.9 21 Nordeste 36 Nordeste 0 987.4 -- 67
2020-07-29 13:00:00 22.3 18 Nordeste 41 Nordeste 0 987.7 -- 65
2020-07-29 12:00:00 21.4 20 Nordeste 49 Nordeste 0 987.9 -- 68
2020-07-29 11:00:00 20 26 Nordeste 48 Nordeste 0 988 -- 72
2020-07-29 10:00:00 18.2 20 Este 64 Nordeste 0 988.3 -- 76
2020-07-29 09:00:00 17 29 Nordeste 54 Este 0 988.1 -- 81
2020-07-29 08:00:00 16 33 Nordeste 53 Nordeste 0 988.1 -- 85
2020-07-29 07:00:00 15.7 32 Nordeste 52 Nordeste 0 988.4 -- 85
2020-07-29 06:00:00 15.3 28 Nordeste 46 Nordeste 0 988.5 -- 86
2020-07-29 05:00:00 15.4 26 Nordeste 45 Este 0 988.9 -- 87
2020-07-29 04:00:00 15.5 29 Nordeste 52 Este 0 989 -- 86
2020-07-29 03:00:00 15.6 31 Nordeste 60 Este 0 989.3 -- 86
2020-07-29 02:00:00 16 32 Nordeste 57 Nordeste 0 990.1 -- 83
2020-07-29 01:00:00 15.8 30 Nordeste 53 Nordeste 0 990.5 -- 84
2020-07-29 00:00:00 15.9 31 Nordeste 65 Nordeste 0 991.1 -- 83
2020-07-28 23:00:00 15.7 28 Nordeste 65 Nordeste 0 990.9 -- 83
2020-07-28 22:00:00 16.1 37 Nordeste 66 Nordeste 0 990.6 -- 80
2020-07-28 21:00:00 17.1 35 Nordeste 64 Nordeste 0 990.8 -- 76
2020-07-28 20:00:00 18.2 36 Nordeste 75 Nordeste 0 990.9 -- 73
2020-07-28 19:00:00 18.9 44 Nordeste 72 Nordeste 0 990.9 -- 71
2020-07-28 18:00:00 19.8 32 Nordeste 54 Nordeste 0 991.2 -- 68
2020-07-28 17:00:00 19.7 30 Nordeste 51 Nordeste 0 991.4 -- 69
2020-07-28 16:00:00 19.5 26 Nordeste 54 Nordeste 0 991.8 -- 74
2020-07-28 15:00:00 18.6 29 Nordeste 53 Norte 0 992.2 -- 82
2020-07-28 14:00:00 18 29 Nordeste 58 Nordeste 0 992.4 -- 85
2020-07-28 13:00:00 17.1 37 Nordeste 54 Nordeste 0 992 -- 91
2020-07-28 12:00:00 17.1 30 Norte 51 Nordeste 0 991.9 -- 91
2020-07-28 11:00:00 17 32 Nordeste 46 Nordeste 0 991.7 -- 92
2020-07-28 10:00:00 17.2 31 Nordeste 46 Nordeste 0 991.7 -- 91
2020-07-28 09:00:00 17.1 32 Nordeste 46 Nordeste 0 991.3 -- 90
2020-07-28 08:00:00 16.3 24 Nordeste 39 Nordeste 0 991.2 -- 92
2020-07-28 07:00:00 16.7 21 Nordeste 35 Nordeste 0 990.8 -- 90
2020-07-28 06:00:00 16.7 24 Nordeste 37 Nordeste 0 990.7 -- 91
2020-07-28 05:00:00 17.5 25 Nordeste 43 Nordeste 0 990.6 -- 86
2020-07-28 04:00:00 16.9 35 Nordeste 43 Nordeste 0 990.5 -- 96
2020-07-28 03:00:00 16.9 33 Norte 49 Norte 0 990.8 -- 96
2020-07-28 02:00:00 17.2 27 Nordeste 39 Nordeste 0 991.3 -- 95
2020-07-28 01:00:00 17.6 22 Norte 31 Norte 0 991.4 -- 94
2020-07-28 00:00:00 18.6 23 Nordeste 28 Nordeste 0 991.6 -- 85
2020-07-27 23:00:00 18.3 16 Nordeste 27 Norte 0 991.6 -- 96
2020-07-27 22:00:00 18.2 25 Nordeste 30 Norte 0 991.1 -- 96
2020-07-27 21:00:00 18.6 15 Norte 23 Norte 0 990.8 -- 95
2020-07-27 20:00:00 19.2 8 Noroeste 16 Norte 0 990.6 -- 93
2020-07-27 19:00:00 20.1 9 Noroeste 15 Noroeste 0 990.8 -- 89
2020-07-27 18:00:00 20.4 12 Oeste 17 Oeste 0 990.8 -- 88
2020-07-27 17:00:00 21.3 12 Oeste 18 Oeste 0 990.8 -- 86
2020-07-27 16:00:00 20.4 8 Sur 14 Sur 0 990.9 -- 88
2020-07-27 15:00:00 20.5 7 Sur 13 Sudoeste 0 990.9 -- 86
2020-07-27 14:00:00 19.7 8 Sur 15 Sur 0 991.1 -- 90
2020-07-27 13:00:00 20.2 6 Sudoeste 12 Sudoeste 0 990.8 -- 89
2020-07-27 12:00:00 19.5 8 Sur 14 Sur 0 990.3 -- 93
2020-07-27 09:00:00 18.2 3 Sur 15 Norte 0 989.4 0.4 95
2020-07-27 08:00:00 17.7 10 Noroeste 19 Oeste 0 989.2 0.1 95
2020-07-27 07:00:00 17.9 14 Oeste 22 Oeste 0 989 -0.1 93
2020-07-27 06:00:00 17.5 12 Noroeste 18 Noroeste 0 989 -0.1 93
2020-07-27 05:00:00 16.4 11 Noroeste 20 Noroeste 0 989.1 -0.4 86
2020-07-27 04:00:00 17.7 9 Norte 17 Norte 0 989.1 -0.3 82
2020-07-27 03:00:00 17.7 15 Norte 26 Norte 0 989.1 -0.2 83
2020-07-27 02:00:00 18.2 19 Norte 37 Norte 0 989.5 0.5 79
2020-07-27 01:00:00 17.9 29 Norte 38 Norte 0 989.4 0.9 68
2020-07-27 00:00:00 16.7 32 Nordeste 41 Nordeste 0 989.3 1 80
2020-07-26 23:00:00 16.8 33 Nordeste 42 Nordeste 0 989 0.8 78
2020-07-26 22:00:00 16.9 33 Norte 46 Norte 0 988.5 0 80
2020-07-26 21:00:00 17.2 35 Norte 49 Norte 0 988.3 -0.7 81
2020-07-26 20:00:00 17.8 32 Norte 48 Norte 0 988.2 -1.1 79
2020-07-26 19:00:00 18.4 33 Norte 45 Norte 0 988.5 -1.6 75
2020-07-26 18:00:00 19.2 29 Norte 43 Norte 0 989 -1.3 74
2020-07-26 17:00:00 18.4 33 Norte 45 Nordeste 0 989.3 -1.4 80
2020-07-26 16:00:00 18.8 30 Norte 42 Nordeste 0.2 990.1 -0.7 76
2020-07-26 15:00:00 18.8 26 Norte 36 Norte 0 990.3 -0.8 74
2020-07-26 14:00:00 18.8 24 Norte 35 Norte 0 990.7 -0.3 77
2020-07-26 13:00:00 18.4 21 Norte 29 Nordeste 0 990.8 0 82
2020-07-26 12:00:00 18 15 Norte 24 Nordeste 0 991.1 0.5 87
2020-07-26 11:00:00 17.7 9 Nordeste 15 Nordeste 0 991 0.6 91
2020-07-26 10:00:00 18.2 10 Este 26 Nordeste 0 990.8 -- 96
2020-07-26 09:00:00 16.6 21 Nordeste 28 Nordeste 0 990.6 -- 97
2020-07-26 08:00:00 16.1 19 Nordeste 28 Nordeste 0 990.4 -- 97
2020-07-26 07:00:00 16 22 Nordeste 26 Nordeste 0 990.1 -- 97
2020-07-26 06:00:00 16.5 17 Nordeste 21 Nordeste 0 990 -- 97
2020-07-26 05:00:00 16.7 14 Nordeste 20 Nordeste 0 990.3 -- 97
2020-07-26 04:00:00 17 15 Nordeste 25 Norte 0 990.4 -- 97
2020-07-26 03:00:00 17.2 14 Norte 20 Norte 0 990.5 -- 96
2020-07-26 02:00:00 17.9 9 Norte 15 Norte 0 990.7 -- 96
2020-07-26 01:00:00 17.9 10 Norte 19 Norte 0 990.9 -- 96
2020-07-26 00:00:00 18.1 10 Norte 21 Norte 0 991.1 -- 96
2020-07-25 23:00:00 18 13 Noroeste 27 Noroeste 0 991 -- 96
2020-07-25 22:00:00 18 14 Noroeste 25 Noroeste 0 990.5 -- 95
2020-07-25 21:00:00 18.3 16 Noroeste 26 Noroeste 0 990.4 -- 92
2020-07-25 20:00:00 20.3 16 Noroeste 26 Noroeste 0 990.3 -- 83
2020-07-25 19:00:00 19.4 21 Noroeste 27 Noroeste 0 990.8 -- 87
2020-07-25 18:00:00 19.1 18 Noroeste 31 Noroeste 0 990.9 -- 89
2020-07-25 17:00:00 21 15 Noroeste 28 Noroeste 0 991 -- 77
2020-07-25 16:00:00 21.1 15 Noroeste 27 Noroeste 0 991.2 -- 74
2020-07-25 15:00:00 20.7 16 Noroeste 21 Noroeste 0 991.2 -- 76
2020-07-25 14:00:00 19.6 13 Noroeste 24 Noroeste 0 991.4 -- 82
2020-07-25 13:00:00 19 9 Noroeste 15 Norte 0 991.3 -- 85
2020-07-25 12:00:00 18.9 9 Norte 19 Norte 0 991.2 -- 83
2020-07-25 11:00:00 17.5 13 Norte 17 Norte 0 991.4 -- 85
2020-07-25 10:00:00 17.8 13 Norte 18 Nordeste 0 991 -- 84
2020-07-25 09:00:00 17.6 14 Nordeste 24 Nordeste 0 990.6 -- 85
2020-07-25 08:00:00 16.4 18 Nordeste 27 Nordeste 0 990.4 -- 89
2020-07-25 07:00:00 16.2 21 Nordeste 36 Nordeste 0 990.4 -- 89
2020-07-25 06:00:00 15.9 26 Nordeste 41 Nordeste 0 990.3 -- 90
2020-07-25 05:00:00 15.6 28 Nordeste 44 Nordeste 0 990.3 -- 90
2020-07-25 04:00:00 15.1 29 Nordeste 38 Nordeste 0 990.7 -- 92
2020-07-25 03:00:00 15.1 26 Nordeste 43 Nordeste 0 991.3 -- 92
2020-07-25 02:00:00 15.5 28 Nordeste 41 Nordeste 0 991.4 -- 89
2020-07-25 01:00:00 15.6 30 Nordeste 44 Nordeste 0 991.9 -- 92
2020-07-25 00:00:00 15.8 30 Nordeste 46 Norte 0 992.2 -- 92
2020-07-24 23:00:00 15.9 31 Nordeste 54 Nordeste 0 992 -- 92
2020-07-24 22:00:00 16.1 41 Norte 60 Norte 0 991.4 -- 91
2020-07-24 21:00:00 16.5 38 Norte 58 Norte 0 991.5 -- 90
2020-07-24 20:00:00 17.1 38 Norte 60 Nordeste 0 991.5 -- 84
2020-07-24 19:00:00 17.5 40 Norte 61 Norte 0 991.4 -- 83
2020-07-24 18:00:00 17.4 39 Norte 62 Norte 0 991.6 -- 85
2020-07-24 17:00:00 17.6 36 Norte 65 Nordeste 0 991.8 -- 87
2020-07-24 16:00:00 17.2 36 Norte 54 Norte 0 992.2 -- 87
2020-07-24 15:00:00 17.3 33 Norte 51 Norte 0 992.7 -- 88
2020-07-24 14:00:00 16.8 33 Norte 50 Norte 0 992.7 -- 89
2020-07-24 13:00:00 17.6 32 Norte 45 Norte 0 993 -- 83
2020-07-24 12:00:00 16.9 32 Norte 42 Norte 0 993 -- 88
2020-07-24 11:00:00 16.8 23 Nordeste 33 Norte 0 992.9 -- 87
2020-07-24 10:00:00 17.5 23 Nordeste 36 Nordeste 0 992.7 -- 86
2020-07-24 09:00:00 16.7 29 Nordeste 39 Nordeste 0 992.3 -- 87
2020-07-24 08:00:00 15.4 27 Nordeste 48 Nordeste 0 992 -- 90
2020-07-24 07:00:00 15.6 37 Nordeste 45 Nordeste 0 991.8 -- 88
2020-07-24 06:00:00 14.7 28 Nordeste 41 Nordeste 0 991.9 -- 94
2020-07-24 05:00:00 14.6 31 Nordeste 43 Nordeste 0 992.3 -- 94
2020-07-24 04:00:00 14.6 28 Nordeste 36 Nordeste 0 992.6 -- 93
2020-07-24 03:00:00 14.6 26 Nordeste 35 Nordeste 0 992.8 -- 94
2020-07-24 02:00:00 14.6 28 Nordeste 39 Nordeste 0 992.9 -- 94
2020-07-24 01:00:00 14.9 28 Nordeste 41 Nordeste 0 993 -- 94
2020-07-24 00:00:00 15.1 32 Nordeste 46 Norte 0 992.9 -- 93
2020-07-23 23:00:00 15.1 32 Nordeste 46 Nordeste 0 992.4 -- 92
2020-07-23 22:00:00 15.9 32 Nordeste 53 Nordeste 0 992 -- 84
2020-07-23 21:00:00 17.1 35 Nordeste 57 Norte 0 991.6 -- 75
2020-07-23 20:00:00 17 33 Norte 57 Norte 0 991.5 -- 81
2020-07-23 19:00:00 17.4 35 Norte 54 Nordeste 0 991.6 -- 85
2020-07-23 18:00:00 17.5 40 Norte 61 Norte 0 991.9 -- 86
2020-07-23 17:00:00 16.7 41 Norte 66 Norte 0 992 -- 90
2020-07-23 16:00:00 16.1 46 Norte 67 Nordeste 0 991.9 -- 93
2020-07-23 15:00:00 16.8 46 Norte 63 Norte 0 992 -- 88
2020-07-23 14:00:00 17.3 39 Nordeste 54 Nordeste 0 992 -- 81
2020-07-23 13:00:00 23.5 27 Nordeste 46 Nordeste 0 992.3 -- 53
2020-07-23 12:00:00 20.7 24 Nordeste 44 Nordeste 0 992 -- 70
2020-07-23 11:00:00 18.9 31 Nordeste 51 Nordeste 0 991.9 -- 80
2020-07-23 10:00:00 16.7 33 Nordeste 52 Nordeste 0 991.6 -- 89
2020-07-23 09:00:00 16.4 36 Nordeste 53 Nordeste 0 991 -- 89
2020-07-23 08:00:00 16 36 Nordeste 54 Nordeste 0 990.9 -- 89
2020-07-23 07:00:00 15.5 32 Nordeste 58 Nordeste 0 990.9 -- 93
2020-07-23 06:00:00 15.8 36 Nordeste 57 Nordeste 0 990.7 -- 91
2020-07-23 05:00:00 17.2 36 Nordeste 52 Nordeste 0 990.7 -- 81
2020-07-23 04:00:00 18 31 Nordeste 42 Nordeste 0 990.6 -- 80
2020-07-23 03:00:00 19.9 32 Este 51 Este 0 990.9 -- 75
2020-07-23 02:00:00 18.8 36 Este 54 Nordeste 0 991 -- 78
2020-07-23 01:00:00 18.5 37 Este 49 Este 0 990.9 -- 80
2020-07-23 00:00:00 22.7 32 Este 54 Este 0 991 -- 59
2020-07-22 23:00:00 21.1 35 Este 53 Este 0 990.8 -- 66
2020-07-22 22:00:00 22 33 Este 44 Este 0 990.3 -- 64
2020-07-22 21:00:00 22.3 27 Nordeste 40 Nordeste 0 990.2 -- 66
2020-07-22 20:00:00 23.9 26 Nordeste 36 Nordeste 0 990.2 -- 62
2020-07-22 19:00:00 24.5 26 Nordeste 34 Nordeste 0 990.5 -- 62
2020-07-22 18:00:00 24.7 15 Nordeste 22 Nordeste 0 990.6 -- 62
2020-07-22 17:00:00 26.4 12 Nordeste 19 Nordeste 0 990.8 -- 57
2020-07-22 16:00:00 27.9 5 Norte 13 Sudeste 0 991 -- 52
2020-07-22 15:00:00 26.9 4 Nordeste 19 Nordeste 0 991.1 -- 57
2020-07-22 14:00:00 23.8 16 Nordeste 20 Norte 0 991 -- 63
2020-07-22 13:00:00 26.2 5 Nordeste 16 Nordeste 0 990.8 -- 59
2020-07-22 12:00:00 24.9 9 Nordeste 17 Nordeste 0 990.7 -- 63
2020-07-22 11:00:00 24.7 6 Este 22 Este 0 990.8 -- 61
2020-07-22 10:00:00 22.6 13 Este 24 Este 0 990.4 -- 65
2020-07-22 09:00:00 20.9 17 Este 24 Este 0 990 -- 70
2020-07-22 08:00:00 19 17 Este 38 Este 0 989.5 -- 77
2020-07-22 07:00:00 17.4 27 Este 47 Este 0 989 -- 84
2020-07-22 06:00:00 16.7 34 Este 52 Este 0 988.8 -- 88
2020-07-22 05:00:00 16.1 35 Nordeste 46 Nordeste 0 988.9 -- 90
2020-07-22 04:00:00 17.7 33 Este 58 Este 0 989 -- 80
2020-07-22 03:00:00 16.8 42 Este 68 Este 0 989.2 -- 84
2020-07-22 02:00:00 18.2 39 Este 67 Este 0 989.2 -- 76
2020-07-22 01:00:00 18 37 Este 62 Nordeste 0 989.2 -- 77
2020-07-22 00:00:00 17.6 37 Este 62 Este 0 988.9 -- 80
2020-07-21 23:00:00 17.3 32 Nordeste 56 Nordeste 0 989 -- 82
2020-07-21 22:00:00 17.7 36 Nordeste 58 Nordeste 0 988.6 -- 81
2020-07-21 21:00:00 18.7 38 Nordeste 65 Nordeste 0 988.1 -- 77
2020-07-21 20:00:00 19.9 40 Nordeste 63 Nordeste 0 988.2 -- 73
2020-07-21 19:00:00 21.2 40 Nordeste 64 Nordeste 0 988.6 -- 70
2020-07-21 18:00:00 22.3 37 Nordeste 64 Nordeste 0 988.3 -- 66
2020-07-21 17:00:00 23.1 35 Nordeste 62 Nordeste 0 988.3 -- 64
2020-07-21 16:00:00 23.6 25 Nordeste 52 Nordeste 0 988.7 -- 62
2020-07-21 15:00:00 23.9 20 Nordeste 49 Nordeste 0 989.6 -- 60
2020-07-21 14:00:00 23.2 25 Nordeste 59 Nordeste 0 989.3 -- 64
2020-07-21 13:00:00 22.1 34 Nordeste 58 Nordeste 0 989 -- 66
2020-07-21 12:00:00 21.3 30 Nordeste 54 Nordeste 0 989.2 -- 68
2020-07-21 11:00:00 19.5 30 Nordeste 60 Este 0 989.5 -- 71
2020-07-21 10:00:00 18 34 Nordeste 60 Este 0 989.8 -- 77
2020-07-21 09:00:00 17.2 29 Nordeste 59 Este 0 990.1 -- 80
2020-07-21 08:00:00 16.3 25 Nordeste 60 Nordeste 0 989.1 -- 84
2020-07-21 07:00:00 15.9 32 Nordeste 65 Nordeste 0 988.9 -- 85
2020-07-21 06:00:00 15.9 32 Nordeste 60 Nordeste 0 988.8 -- 84
2020-07-21 05:00:00 16 34 Nordeste 62 Nordeste 0 988.8 -- 85
2020-07-21 04:00:00 16 32 Nordeste 58 Nordeste 0 989.1 -- 85
2020-07-21 03:00:00 16 35 Nordeste 61 Nordeste 0 989 -- 85
2020-07-21 02:00:00 15.9 39 Nordeste 64 Nordeste 0 989.2 -- 85
2020-07-21 01:00:00 16.1 33 Nordeste 58 Nordeste 0 989.8 -- 84
2020-07-21 00:00:00 16.2 31 Nordeste 56 Nordeste 0 990.2 -- 83
2020-07-20 23:00:00 16.3 26 Nordeste 58 Nordeste 0 990.4 -- 82
2020-07-20 22:00:00 16.4 40 Nordeste 78 Nordeste 0 989.6 -- 82
2020-07-20 21:00:00 17.1 53 Nordeste 82 Nordeste 0 989 -- 78
2020-07-20 20:00:00 18.1 52 Nordeste 80 Nordeste 0 988.5 -- 74
2020-07-20 19:00:00 18.9 48 Nordeste 73 Nordeste 0 988.5 -- 72
2020-07-20 18:00:00 20 32 Nordeste 58 Nordeste 0 989.6 -- 68
2020-07-20 17:00:00 20 36 Nordeste 60 Nordeste 0 989.9 -- 69
2020-07-20 16:00:00 21.2 31 Nordeste 66 Nordeste 0 990.1 -- 66
2020-07-20 15:00:00 21 39 Nordeste 65 Nordeste 0 989.5 -- 66
2020-07-20 14:00:00 21.8 24 Nordeste 61 Este 0 990.1 -- 65
2020-07-20 13:00:00 20.3 36 Nordeste 65 Nordeste 0 990.1 -- 68
2020-07-20 12:00:00 19.9 34 Nordeste 62 Nordeste 0 989.6 -- 69
2020-07-20 11:00:00 18.3 39 Nordeste 59 Este 0 989.4 -- 74
2020-07-20 10:00:00 18.4 24 Nordeste 49 Nordeste 0 989.4 -- 76
2020-07-20 09:00:00 17.1 30 Nordeste 54 Nordeste 0 988.8 -- 81
2020-07-20 08:00:00 16.1 26 Nordeste 59 Nordeste 0 988.5 -- 87
2020-07-20 07:00:00 15.9 24 Nordeste 46 Nordeste 0 988.8 -- 87
2020-07-20 06:00:00 15.9 25 Nordeste 59 Nordeste 0 988.4 -- 88
2020-07-20 05:00:00 16 31 Nordeste 60 Nordeste 0 988.3 -- 89
2020-07-20 04:00:00 16.2 28 Nordeste 54 Nordeste 0 988.6 -- 89
2020-07-20 03:00:00 16.3 32 Nordeste 54 Nordeste 0 989 -- 89
2020-07-20 02:00:00 16.2 27 Nordeste 51 Nordeste 0 989.3 -- 89
2020-07-20 01:00:00 16.3 31 Nordeste 58 Nordeste 0 989.3 -- 90
2020-07-20 00:00:00 16.3 31 Nordeste 70 Nordeste 0 989.4 -- 91
2020-07-19 23:00:00 16.4 39 Nordeste 66 Nordeste 0 988.9 -- 91
2020-07-19 22:00:00 16.7 42 Nordeste 68 Nordeste 0 988.2 -- 91
2020-07-19 21:00:00 17.2 35 Nordeste 66 Nordeste 0 988.5 -- 89
2020-07-19 20:00:00 17.3 36 Nordeste 59 Nordeste 0 988.3 -- 88
2020-07-19 19:00:00 18.7 32 Nordeste 46 Nordeste 0 988.1 -- 81
2020-07-19 18:00:00 19.9 27 Nordeste 52 Nordeste 0 988.4 -- 78
2020-07-19 17:00:00 20.9 28 Nordeste 45 Nordeste 0 988.4 -- 74
2020-07-19 16:00:00 21.7 30 Nordeste 55 Nordeste 0 988.5 -- 73
2020-07-19 15:00:00 19.6 30 Nordeste 46 Nordeste 0 988.6 -- 82
2020-07-19 14:00:00 18.8 25 Nordeste 38 Nordeste 0 988.9 -- 88
2020-07-19 13:00:00 17.7 24 Nordeste 41 Nordeste 0 988.7 -- 93
2020-07-19 12:00:00 17.1 22 Nordeste 30 Nordeste 0 988.6 0.8 93
2020-07-19 11:00:00 17.3 9 Nordeste 31 Nordeste 0 988.4 1.1 94
2020-07-19 10:00:00 17.4 14 Nordeste 26 Este 0 988.1 1.5 95
2020-07-19 09:00:00 16.8 19 Este 34 Nordeste 0 987.8 1.5 96
2020-07-19 08:00:00 16.3 28 Nordeste 46 Nordeste 0 987.3 -- 96
2020-07-19 07:00:00 16.1 32 Nordeste 46 Nordeste 0 986.6 -- 96
2020-07-19 06:00:00 15.8 26 Nordeste 38 Nordeste 0 986.3 -- 95
2020-07-19 05:00:00 18.6 14 Nordeste 40 Este 0 986.2 -- 80
2020-07-19 04:00:00 16.8 25 Este 35 Nordeste 0 986.4 -- 90
2020-07-19 03:00:00 17.6 25 Nordeste 34 Nordeste 0 986.6 -- 84
2020-07-19 02:00:00 18 20 Nordeste 27 Nordeste 0 986.7 -- 80
2020-07-19 01:00:00 25.6 13 Este 22 Este 0 986.6 -- 31
2020-07-19 00:00:00 25.6 19 Este 24 Este 0 986.5 -- 31
2020-07-18 23:00:00 25 23 Este 32 Nordeste 0 986.5 -- 34
2020-07-18 22:00:00 24.7 24 Nordeste 31 Nordeste 0 985.9 -- 41
2020-07-18 21:00:00 26.5 15 Nordeste 24 Norte 0 985.8 -- 32
2020-07-18 20:00:00 27.3 13 Norte 20 Norte 0 985.8 -- 31
2020-07-18 19:00:00 27.9 10 Norte 16 Norte 0 986 -- 29
2020-07-18 18:00:00 29.9 5 Noroeste 17 Oeste 0 986.2 -- 25
2020-07-18 17:00:00 29.8 7 Oeste 15 Oeste 0 986.5 -- 25
2020-07-18 16:00:00 30.1 6 Sur 14 Sudoeste 0 986.8 -- 27
2020-07-18 15:00:00 29.4 7 Sudeste 17 Sudeste 0 987 -- 35
2020-07-18 14:00:00 28.9 10 Sudeste 20 Sudeste 0 987.2 -- 39
2020-07-18 13:00:00 27.5 10 Sudeste 18 Sudeste 0 987.1 -- 43
2020-07-18 12:00:00 26.2 10 Sur 18 Sur 0 987 -- 42
2020-07-18 11:00:00 25.4 11 Sur 21 Sur 0 986.8 -- 39
2020-07-18 10:00:00 24.7 15 Sur 22 Sur 0 986.4 -- 38
2020-07-18 09:00:00 24.1 17 Sur 23 Sur 0 986 -- 37
2020-07-18 08:00:00 25.7 5 Sur 9 Sur 0 985.6 -- 30
2020-07-18 07:00:00 24.4 8 Sudoeste 11 Sur 0 985.5 -- 32
2020-07-18 06:00:00 25.6 5 Sudoeste 10 Sudoeste 0 985.5 -- 28
2020-07-18 05:00:00 26.3 8 Sudoeste 12 Sur 0 985.7 -- 27
2020-07-18 04:00:00 26.2 10 Sur 22 Sudeste 0 986 -- 26
2020-07-18 03:00:00 24.6 8 Este 22 Este 0 986.4 -- 33
2020-07-18 02:00:00 25 11 Este 36 Este 0 986.5 -- 31
2020-07-18 01:00:00 25.8 24 Este 41 Este 0 986.8 -- 28
2020-07-18 00:00:00 25.4 32 Este 46 Este 0 986.8 -- 31
2020-07-17 23:00:00 25.6 33 Este 49 Este 0 986.9 -- 35
2020-07-17 22:00:00 25.6 33 Este 50 Este 0 986.7 -- 44
2020-07-17 21:00:00 26.9 33 Este 45 Este 0 986.9 -- 43
2020-07-17 20:00:00 27.1 28 Este 40 Nordeste 0 987.2 -- 45
2020-07-17 19:00:00 27.7 24 Nordeste 36 Este 0 987.6 -- 46
2020-07-17 18:00:00 28.6 24 Nordeste 35 Nordeste 0 988.2 -- 45
2020-07-17 17:00:00 29.8 21 Nordeste 33 Nordeste 0 988.6 -- 42
2020-07-17 16:00:00 30.5 22 Nordeste 31 Nordeste 0 988.7 -- 41
2020-07-17 15:00:00 31.4 10 Este 26 Este 0 988.9 -- 37
2020-07-17 14:00:00 31 12 Este 31 Este 0 989.1 -- 34
2020-07-17 13:00:00 29.2 19 Este 41 Este 0 989.1 -- 36
2020-07-17 12:00:00 27 24 Este 49 Este 0 988.9 -- 39
2020-07-17 11:00:00 25.8 25 Este 53 Este 0 988.8 -- 39
2020-07-17 10:00:00 22.9 33 Este 52 Este 0 988.6 -- 45
2020-07-17 09:00:00 21.2 36 Este 63 Este 0 988.5 -- 47
2020-07-17 08:00:00 19.2 46 Este 66 Este 0 988 -- 52
2020-07-17 07:00:00 17.6 39 Este 69 Este 0 988.2 -- 60
2020-07-17 06:00:00 15 17 Norte 40 Este 0 989.2 -- 80
2020-07-17 05:00:00 14.9 17 Este 50 Nordeste 0 989.6 -- 81
2020-07-17 04:00:00 15.1 18 Nordeste 47 Nordeste 0 989.9 -- 81
2020-07-17 03:00:00 15.2 31 Nordeste 58 Nordeste 0 990 -- 80
2020-07-17 02:00:00 15.5 39 Nordeste 63 Nordeste 0 990.2 -- 78
2020-07-17 01:00:00 16 36 Nordeste 60 Nordeste 0 990.5 -- 75
2020-07-17 00:00:00 16.2 35 Nordeste 52 Nordeste 0 991 -- 77
2020-07-16 23:00:00 16.5 30 Nordeste 57 Nordeste 0 991 -- 76
2020-07-16 22:00:00 17.7 28 Nordeste 53 Este 0 990.6 -- 72
2020-07-16 21:00:00 19.3 24 Nordeste 48 Nordeste 0 990.9 -- 67
2020-07-16 20:00:00 21.1 23 Nordeste 50 Nordeste 0 991 -- 61
2020-07-16 19:00:00 21.8 28 Nordeste 56 Nordeste 0 991.3 -- 58
2020-07-16 18:00:00 22.9 22 Nordeste 52 Nordeste 0 991.5 -- 57
2020-07-16 17:00:00 22.3 31 Nordeste 47 Nordeste 0 991.6 -- 59
2020-07-16 16:00:00 23.6 27 Nordeste 48 Nordeste 0 991.8 -- 54
2020-07-16 15:00:00 23.7 25 Nordeste 48 Este 0 992.1 -- 53
2020-07-16 14:00:00 23.5 14 Nordeste 41 Este 0 992.5 -- 55
2020-07-16 13:00:00 22.6 19 Nordeste 51 Este 0 992.6 -- 56
2020-07-16 12:00:00 20.6 29 Nordeste 51 Nordeste 0 992.5 -- 60
2020-07-16 11:00:00 19.2 28 Nordeste 48 Nordeste 0 992.3 -- 63
2020-07-16 10:00:00 17.1 30 Nordeste 50 Nordeste 0 991.8 -- 70
2020-07-16 09:00:00 15.2 26 Norte 49 Nordeste 0 991.7 -- 77
2020-07-16 08:00:00 14.3 18 Norte 39 Nordeste 0 991.8 -- 80
2020-07-16 07:00:00 13.7 19 Nordeste 41 Nordeste 0 991.8 -- 83
2020-07-16 06:00:00 14 27 Nordeste 56 Nordeste 0 991.7 -- 81
2020-07-16 05:00:00 14.1 32 Nordeste 50 Nordeste 0 991.8 -- 80
2020-07-16 04:00:00 14.2 21 Norte 37 Nordeste 0 992.1 -- 82
2020-07-16 03:00:00 14.4 18 Norte 63 Nordeste 0 992.2 -- 82
2020-07-16 02:00:00 14.6 36 Nordeste 85 Nordeste 0 992.2 -- 82
2020-07-16 01:00:00 14.8 46 Nordeste 80 Nordeste 0 991.6 -- 81
2020-07-16 00:00:00 14.8 47 Nordeste 80 Nordeste 0 991.8 -- 82
2020-07-15 23:00:00 14.9 46 Nordeste 75 Nordeste 0 991.5 -- 82
2020-07-15 22:00:00 15.9 40 Nordeste 67 Nordeste 0 991.7 -- 77
2020-07-15 21:00:00 17.4 37 Nordeste 63 Nordeste 0 991.9 -- 71
2020-07-15 20:00:00 18.4 32 Nordeste 62 Nordeste 0 992.1 -- 68
2020-07-15 19:00:00 18.3 30 Nordeste 59 Nordeste 0 992.6 -- 70
2020-07-15 18:00:00 18.1 39 Norte 59 Norte 0 992.9 -- 71
2020-07-15 17:00:00 19.1 33 Nordeste 54 Nordeste 0 992.8 -- 67
2020-07-15 16:00:00 19.6 31 Nordeste 47 Norte 0 993.2 -- 66
2020-07-15 15:00:00 20 24 Nordeste 42 Nordeste 0 993.6 -- 65
2020-07-15 14:00:00 19.2 25 Nordeste 53 Nordeste 0 993.7 -- 67
2020-07-15 13:00:00 19.4 30 Nordeste 58 Nordeste 0 993.9 -- 67
2020-07-15 12:00:00 19.1 26 Nordeste 59 Nordeste 0 994 -- 68
2020-07-15 11:00:00 17.8 31 Nordeste 68 Nordeste 0 993.6 -- 73
2020-07-15 10:00:00 16.8 35 Nordeste 69 Nordeste 0 993.3 -- 76
2020-07-15 09:00:00 15.9 26 Nordeste 50 Nordeste 0 993.3 -- 82
2020-07-15 08:00:00 15.2 27 Nordeste 58 Nordeste 0 993.1 -- 84
2020-07-15 07:00:00 14.9 32 Nordeste 74 Nordeste 0 992.8 -- 86
2020-07-15 06:00:00 14.7 25 Nordeste 59 Nordeste 0 992.4 -- 88
2020-07-15 05:00:00 14.8 25 Nordeste 57 Nordeste 0 992.7 -- 89
2020-07-15 04:00:00 14.7 28 Nordeste 55 Nordeste 0 992.8 -- 93
2020-07-15 03:00:00 14.7 27 Nordeste 54 Nordeste 0 993.1 -- 96
2020-07-15 02:00:00 15.1 31 Nordeste 51 Nordeste 0 992.9 -- 96
2020-07-15 01:00:00 15.2 33 Nordeste 57 Nordeste 0 993.2 -- 96
2020-07-15 00:00:00 15.4 35 Nordeste 54 Nordeste 0 993.1 -- 95
2020-07-14 23:00:00 15.8 36 Nordeste 63 Nordeste 0 992.8 -- 93
2020-07-14 22:00:00 16.1 34 Nordeste 61 Nordeste 0 992.4 -- 90
2020-07-14 21:00:00 16.2 39 Nordeste 74 Nordeste 0 992.3 -- 90
2020-07-14 20:00:00 17.8 41 Nordeste 66 Nordeste 0 992.3 -- 75
2020-07-14 19:00:00 17.2 40 Norte 63 Norte 0 992.3 -- 82
2020-07-14 18:00:00 17.3 38 Norte 63 Nordeste 0 992.5 -- 81
2020-07-14 17:00:00 16.2 39 Norte 60 Norte 0 992.9 -- 92
2020-07-14 16:00:00 17.3 35 Norte 59 Norte 0 993.3 -- 84
2020-07-14 15:00:00 16.1 40 Norte 58 Norte 0 993.6 -- 91
2020-07-14 14:00:00 18.1 33 Norte 54 Nordeste 0 994 -- 73
2020-07-14 13:00:00 16.6 36 Nordeste 57 Nordeste 0 994 -- 81
2020-07-14 12:00:00 17.8 34 Nordeste 54 Nordeste 0 994 -- 66
2020-07-14 11:00:00 17.3 33 Nordeste 52 Nordeste 0 994.3 -- 69
2020-07-14 10:00:00 16.6 30 Nordeste 46 Nordeste 0 994.5 -- 78
2020-07-14 09:00:00 15.6 25 Nordeste 43 Nordeste 0 994.6 -- 87
2020-07-14 08:00:00 14.8 25 Nordeste 41 Nordeste 0 994.5 -- 92
2020-07-14 07:00:00 14.6 28 Nordeste 45 Nordeste 0 994.2 -- 92
2020-07-14 06:00:00 14.7 27 Nordeste 55 Nordeste 0 994.5 -- 91
2020-07-14 05:00:00 14.6 30 Nordeste 56 Nordeste 0 994.3 -- 88
2020-07-14 04:00:00 15 35 Nordeste 67 Nordeste 0 994.5 -- 85
2020-07-14 03:00:00 15.2 42 Nordeste 66 Nordeste 0 994.5 -- 85
2020-07-14 02:00:00 15.5 45 Nordeste 69 Nordeste 0 994.8 -- 84
2020-07-14 01:00:00 15.6 47 Nordeste 65 Nordeste 0 994.6 -- 83
2020-07-14 00:00:00 16.2 44 Nordeste 67 Nordeste 0 994.9 -- 76
2020-07-13 23:00:00 16.1 46 Nordeste 66 Nordeste 0 994.7 -- 76
2020-07-13 22:00:00 16.8 33 Nordeste 62 Nordeste 0 994.7 0.6 73
2020-07-13 21:00:00 17.8 36 Nordeste 57 Nordeste 0 994.4 0 75
2020-07-13 20:00:00 18.7 35 Nordeste 53 Norte 0 994.2 -0.4 73
2020-07-13 19:00:00 21.3 27 Nordeste 49 Nordeste 0 994.1 -0.6 59
2020-07-13 18:00:00 21.1 29 Nordeste 52 Norte 0 994.4 -0.4 63
2020-07-13 17:00:00 21.5 23 Nordeste 50 Nordeste 0 994.6 -0.1 62
2020-07-13 16:00:00 21.4 30 Nordeste 53 Nordeste 0 994.7 0.5 62
2020-07-13 15:00:00 20.3 35 Norte 50 Nordeste 0 994.8 0.2 67
2020-07-13 14:00:00 21.3 32 Nordeste 71 Nordeste 0 994.7 0.2 63
2020-07-13 13:00:00 21.3 41 Nordeste 64 Nordeste 0 994.2 0 59
2020-07-13 12:00:00 20.5 23 Nordeste 51 Nordeste 0 994.6 0.8 63
2020-07-13 11:00:00 20.4 27 Nordeste 57 Nordeste 0 994.5 0.6 61
2020-07-13 10:00:00 18.6 28 Nordeste 57 Nordeste 0 994.2 1 67
2020-07-13 09:00:00 16.8 39 Nordeste 69 Nordeste 0 993.8 1.1 76
2020-07-13 08:00:00 15.8 29 Nordeste 44 Nordeste 0 993.9 1.4 81
2020-07-13 07:00:00 15.2 26 Nordeste 55 Nordeste 0 993.2 -- 84
2020-07-13 06:00:00 15.6 32 Nordeste 58 Nordeste 0 992.7 -0.1 81
2020-07-13 05:00:00 15.5 32 Nordeste 62 Nordeste 0 992.5 -0.5 82
2020-07-13 04:00:00 15.9 27 Nordeste 51 Nordeste 0 992.5 -0.6 78
2020-07-13 03:00:00 16.3 8 Noroeste 28 Nordeste 0 992.8 -0.1 75
2020-07-13 02:00:00 16.5 13 Norte 32 Norte 0 993 1.1 77
2020-07-13 01:00:00 16.9 15 Norte 38 Nordeste 0 993.1 1.7 76
2020-07-13 00:00:00 17.8 26 Nordeste 59 Nordeste 0 992.9 2.1 74
2020-07-12 23:00:00 18.9 29 Nordeste 52 Nordeste 0 991.9 1.4 70
2020-07-12 22:00:00 19.8 30 Nordeste 54 Nordeste 0 991.4 0.9 68
2020-07-12 21:00:00 21.8 35 Nordeste 55 Nordeste 0 990.8 0.3 64
2020-07-12 20:00:00 24.1 21 Nordeste 38 Nordeste 0 990.5 0.2 58
2020-07-12 19:00:00 24.7 22 Nordeste 44 Nordeste 0 990.5 0.2 59
2020-07-12 18:00:00 26 25 Nordeste 43 Nordeste 0 990.5 0.4 58
2020-07-12 17:00:00 26.9 24 Nordeste 38 Nordeste 0 990.3 0.2 56
2020-07-12 16:00:00 25.9 24 Nordeste 32 Nordeste 0 990.3 0.6 57
2020-07-12 15:00:00 25.5 18 Nordeste 25 Nordeste 0 990.1 -- 61
2020-07-12 14:00:00 23.6 14 Norte 21 Norte 0 990.1 1.3 64
2020-07-12 13:00:00 27.7 8 Este 20 Nordeste 0 989.7 -- 55
2020-07-12 12:00:00 25.8 16 Este 28 Nordeste 0 989.4 -- 58
2020-07-12 11:00:00 22.9 18 Nordeste 22 Nordeste 0 988.8 -- 66
2020-07-12 10:00:00 23.8 6 Este 37 Este 0 988.8 1.7 61
2020-07-12 09:00:00 22.3 18 Este 31 Este 0 987.9 -- 60
2020-07-12 08:00:00 19.8 27 Este 55 Este 0 987.6 -- 68
2020-07-12 07:00:00 19.8 27 Este 45 Este 0 987.1 -- 69
2020-07-12 06:00:00 18 34 Este 61 Este 0 987 -- 76
2020-07-12 05:00:00 17.3 43 Este 60 Este 0 986.5 -- 79
2020-07-12 04:00:00 18 35 Este 56 Este 0 986.3 -- 77
2020-07-12 03:00:00 17.8 37 Este 57 Este 0 986.5 -- 78
2020-07-12 02:00:00 18.1 41 Este 67 Este 0 986.6 -- 77
2020-07-12 01:00:00 18.9 50 Este 73 Este 0 986.2 -- 73
2020-07-12 00:00:00 18.9 49 Este 69 Este 0 986.3 -- 74
2020-07-11 23:00:00 18.9 40 Nordeste 60 Este 0 986.2 -- 74
2020-07-11 22:00:00 19.2 15 Nordeste 58 Nordeste 0 986.6 -- 72
2020-07-11 21:00:00 20.7 40 Nordeste 58 Nordeste 0 986 -- 67
2020-07-11 20:00:00 22.3 32 Nordeste 54 Nordeste 0 986.4 -- 63
2020-07-11 19:00:00 23.4 28 Nordeste 51 Nordeste 0 986.8 -0.9 59
2020-07-11 18:00:00 22.4 26 Nordeste 48 Nordeste 0 987.3 -- 61
2020-07-11 17:00:00 21.5 25 Nordeste 42 Norte 0 987.5 -- 64
2020-07-11 16:00:00 21.9 22 Nordeste 44 Nordeste 0 987.7 -- 62
2020-07-11 15:00:00 23.3 23 Nordeste 49 Nordeste 0 988.1 -- 59
2020-07-11 14:00:00 22.8 26 Nordeste 55 Este 0 988.4 -- 61
2020-07-11 13:00:00 21.1 38 Nordeste 62 Nordeste 0 988.4 -- 64
2020-07-11 12:00:00 20.2 34 Nordeste 66 Nordeste 0 988.7 -- 68
2020-07-11 11:00:00 19 33 Nordeste 60 Nordeste 0 989.1 -- 71
2020-07-11 10:00:00 17.5 42 Nordeste 67 Nordeste 0 989 -- 73
2020-07-11 09:00:00 16.4 30 Nordeste 76 Nordeste 0 989.4 -- 77
2020-07-11 08:00:00 15.4 36 Nordeste 67 Nordeste 0 989.1 -- 80
2020-07-11 07:00:00 14.8 32 Nordeste 69 Nordeste 0 989.5 -- 84
2020-07-11 06:00:00 14.8 33 Nordeste 62 Este 0 989.5 -- 85
2020-07-11 05:00:00 14.8 37 Nordeste 66 Nordeste 0 989.6 -- 85
2020-07-11 04:00:00 14.8 35 Nordeste 62 Nordeste 0 990 -- 85
2020-07-11 03:00:00 14.8 31 Nordeste 58 Nordeste 0 990.6 -- 85
2020-07-11 02:00:00 14.8 25 Nordeste 64 Nordeste 0 991.3 -0.3 85
2020-07-11 01:00:00 14.9 32 Nordeste 62 Nordeste 0 991.4 -- 85
2020-07-11 00:00:00 15 33 Nordeste 61 Nordeste 0 991.8 -- 83
2020-07-10 23:00:00 15.2 37 Nordeste 62 Nordeste 0 991.6 -- 81
2020-07-10 22:00:00 15.9 36 Nordeste 60 Nordeste 0 991.1 -- 78
2020-07-10 21:00:00 17.1 38 Nordeste 59 Nordeste 0 991 -- 73
2020-07-10 20:00:00 18 40 Nordeste 65 Nordeste 0 991.1 -- 70
2020-07-10 19:00:00 18.7 26 Nordeste 49 Nordeste 0 991.1 -- 71
2020-07-10 18:00:00 19.1 28 Nordeste 53 Nordeste 0 991.3 -- 69
2020-07-10 17:00:00 19.4 31 Nordeste 50 Nordeste 0 991.4 -- 67
2020-07-10 16:00:00 19.7 27 Nordeste 55 Nordeste 0 991.9 -- 69
2020-07-10 15:00:00 19.5 24 Nordeste 55 Nordeste 0 992.3 -- 69
2020-07-10 14:00:00 18.7 30 Nordeste 57 Este 0 992.7 0 70
2020-07-10 13:00:00 17.3 31 Nordeste 58 Nordeste 0 992.7 -- 78
2020-07-10 12:00:00 16.1 28 Nordeste 55 Nordeste 0 993 -- 86
2020-07-10 11:00:00 14.8 31 Nordeste 48 Nordeste 0 992.7 0.7 93
2020-07-10 10:00:00 15 26 Nordeste 44 Nordeste 0 992.9 -- 93
2020-07-10 09:00:00 14.8 26 Nordeste 58 Nordeste 0 992.6 -- 91
2020-07-10 08:00:00 14.1 36 Nordeste 56 Nordeste 0 992 -- 95
2020-07-10 07:00:00 14.2 33 Nordeste 48 Nordeste 0 992 -- 95
2020-07-10 06:00:00 14.5 28 Nordeste 48 Nordeste 0 992.1 -- 92
2020-07-10 05:00:00 14.4 28 Nordeste 45 Nordeste 0 992.2 -- 91
2020-07-10 04:00:00 14.2 26 Nordeste 43 Nordeste 0 992.2 -- 93
2020-07-10 03:00:00 14.4 25 Nordeste 40 Nordeste 0 992.8 -- 94
2020-07-10 02:00:00 14.6 29 Nordeste 42 Nordeste 0 993.6 -- 94
2020-07-10 01:00:00 14.9 27 Nordeste 52 Nordeste 0 993.9 -- 93
2020-07-10 00:00:00 14.8 28 Nordeste 48 Nordeste 0 993.3 -- 96
2020-07-09 23:00:00 15.1 32 Nordeste 59 Norte 0 992.8 -- 97
2020-07-09 22:00:00 15.2 38 Norte 61 Norte 0 992.2 -- 97
2020-07-09 21:00:00 15.7 39 Norte 59 Norte 0 992 -- 96
2020-07-09 20:00:00 16.3 32 Norte 52 Norte 0 992.1 -- 94
2020-07-09 19:00:00 16.8 35 Norte 59 Norte 0 991.9 -- 91
2020-07-09 18:00:00 16.3 43 Norte 61 Norte 0 992 -- 91
2020-07-09 17:00:00 17.8 42 Norte 68 Norte 0 992.4 -- 67
2020-07-09 16:00:00 15.9 46 Norte 71 Norte 0 992.3 -- 91
2020-07-09 15:00:00 15.4 45 Norte 68 Norte 0 992.2 -- 93
2020-07-09 14:00:00 15.2 47 Norte 67 Norte 0 992.4 -- 95
2020-07-09 13:00:00 16.1 42 Norte 60 Norte 0 992.2 -- 91
2020-07-09 12:00:00 16 38 Norte 54 Norte 0 992.1 -- 91
2020-07-09 11:00:00 17.4 31 Nordeste 42 Nordeste 0 992.3 -- 83
2020-07-09 10:00:00 17.2 30 Nordeste 42 Nordeste 0 992.1 -- 83
2020-07-09 09:00:00 15.9 21 Nordeste 43 Nordeste 0 991.9 -- 89
2020-07-09 08:00:00 15.3 26 Nordeste 45 Nordeste 0 991.3 -- 92
2020-07-09 07:00:00 15.2 30 Nordeste 60 Nordeste 0 991 -- 93
2020-07-09 06:00:00 15.2 40 Nordeste 69 Nordeste 0 990 -- 93
2020-07-09 05:00:00 15 47 Nordeste 68 Nordeste 0 988.9 -- 94
2020-07-09 04:00:00 15.9 48 Nordeste 76 Nordeste 0 988.7 -- 83
2020-07-09 03:00:00 15.4 55 Nordeste 70 Nordeste 0 988.4 -- 90
2020-07-09 02:00:00 16.1 44 Nordeste 69 Nordeste 0 989.4 -- 84
2020-07-09 01:00:00 16.1 32 Nordeste 63 Nordeste 0 989.6 -- 84
2020-07-09 00:00:00 15.8 31 Nordeste 72 Nordeste 0 989.4 -- 89
2020-07-08 23:00:00 16.1 42 Nordeste 64 Nordeste 0 988.5 -- 90
2020-07-08 22:00:00 16.5 31 Nordeste 60 Nordeste 0 988.7 -- 87
2020-07-08 21:00:00 17 32 Nordeste 58 Nordeste 0 987.9 -- 85
2020-07-08 20:00:00 17.1 30 Nordeste 50 Nordeste 0 987.7 -- 85
2020-07-08 19:00:00 18.6 32 Nordeste 61 Nordeste 0 987.5 -- 79
2020-07-08 18:00:00 19.1 38 Nordeste 66 Nordeste 0 987.2 -- 76
2020-07-08 17:00:00 18.8 44 Nordeste 64 Nordeste 0 987.2 -- 77
2020-07-08 16:00:00 20.1 32 Nordeste 50 Nordeste 0 987.6 -- 71
2020-07-08 15:00:00 21.2 23 Nordeste 52 Nordeste 0 987.6 -- 71
2020-07-08 14:00:00 21.4 32 Nordeste 56 Nordeste 0 987.2 -- 68
2020-07-08 13:00:00 19.5 27 Nordeste 52 Nordeste 0 987 -- 74
2020-07-08 12:00:00 20 30 Nordeste 55 Nordeste 0 986.8 -- 73
2020-07-08 11:00:00 19.3 39 Nordeste 60 Nordeste 0 986.5 -- 74
2020-07-08 10:00:00 18.1 35 Nordeste 57 Este 0 986.4 -- 79
2020-07-08 09:00:00 16.7 35 Este 54 Este 0 986 -- 86
2020-07-08 08:00:00 15.9 30 Este 48 Este 0 985.9 -- 90
2020-07-08 07:00:00 15.5 31 Nordeste 44 Este 0 985.8 -- 92
2020-07-08 06:00:00 15.6 35 Este 46 Este 0 985.6 -- 88
2020-07-08 05:00:00 16.1 29 Este 39 Este 0 985.9 -- 83
2020-07-08 04:00:00 19 29 Este 41 Este 0 986 -- 68
2020-07-08 03:00:00 19.4 22 Este 43 Este 0 986.2 -- 67
2020-07-08 02:00:00 21.6 27 Este 50 Este 0 986.5 -- 59
2020-07-08 01:00:00 22.1 30 Este 49 Este 0 986.4 -- 59
2020-07-08 00:00:00 22 35 Este 51 Este 0 986.5 -- 62
2020-07-07 23:00:00 20.9 33 Este 52 Este 0 986.3 -- 65
2020-07-07 22:00:00 21.8 32 Nordeste 42 Nordeste 0 986 -- 63
2020-07-07 21:00:00 23.2 31 Nordeste 42 Nordeste 0 986 -- 59
2020-07-07 20:00:00 24.2 28 Nordeste 42 Nordeste 0 986.1 -1.5 58
2020-07-07 19:00:00 24.4 17 Nordeste 26 Nordeste 0 986.7 -1.2 59
2020-07-07 18:00:00 25.4 20 Nordeste 28 Nordeste 0 987.1 -1 57
2020-07-07 17:00:00 26.9 18 Nordeste 25 Nordeste 0 987.6 -0.7 54
2020-07-07 16:00:00 27.4 15 Nordeste 22 Nordeste 0 987.9 -0.4 53
2020-07-07 15:00:00 26.9 9 Norte 15 Norte 0 988.1 0 56
2020-07-07 14:00:00 26.6 3 Norte 14 Sur 0 988.3 0.5 58
2020-07-07 13:00:00 25.9 4 Sudoeste 15 Este 0 988.3 0.7 57
2020-07-07 12:00:00 24.5 7 Este 22 Este 0 988.1 0.8 60
2020-07-07 11:00:00 22.1 15 Este 31 Este 0 987.8 0.8 65
2020-07-07 10:00:00 19.1 26 Este 42 Este 0 987.6 0.7 70
2020-07-07 09:00:00 17.2 34 Este 53 Este 0 987.3 0.2 75
2020-07-07 08:00:00 15.8 40 Este 57 Este 0 987 -0.1 80
2020-07-07 07:00:00 14.9 39 Este 62 Este 0 986.9 -- 85
2020-07-07 06:00:00 14.9 44 Este 69 Este 0 987.1 -- 85
2020-07-07 05:00:00 15.1 47 Este 67 Este 0 987.1 -- 84
2020-07-07 04:00:00 15.2 50 Este 74 Este 0 987.8 -- 84
2020-07-07 03:00:00 14.8 23 Norte 52 Nordeste 0 989 -- 86
2020-07-07 02:00:00 14.7 20 Norte 49 Nordeste 0 989.4 -- 87
2020-07-07 01:00:00 15.1 27 Nordeste 56 Nordeste 0 989.4 -- 86
2020-07-07 00:00:00 15 23 Nordeste 55 Nordeste 0 989.9 -- 86